createdAt,value
2018-04-28T00:00:08.787Z,58.9
2018-04-28T00:01:08.766Z,58.8
2018-04-28T00:02:08.745Z,58.9
2018-04-28T00:03:08.718Z,58.61
2018-04-28T00:04:08.694Z,58.9
2018-04-28T00:05:08.676Z,59.09
2018-04-28T00:06:08.650Z,58.9
2018-04-28T00:07:08.634Z,59.19
2018-04-28T00:08:08.608Z,59.28
2018-04-28T00:09:08.333Z,59.28
2018-04-28T00:10:08.559Z,59.09
2018-04-28T00:11:08.538Z,59.09
2018-04-28T00:12:08.515Z,58.99
2018-04-28T00:13:08.503Z,58.99
2018-04-28T00:14:08.223Z,59.19
2018-04-28T00:15:08.199Z,59.19
2018-04-28T00:16:08.422Z,59.09
2018-04-28T00:17:08.401Z,59.19
2018-04-28T00:18:08.374Z,59.19
2018-04-28T00:19:08.361Z,59.19
2018-04-28T00:20:08.330Z,59.19
2018-04-28T00:21:08.316Z,58.99
2018-04-28T00:22:08.287Z,59.09
2018-04-28T00:23:08.270Z,59.19
2018-04-28T00:24:07.991Z,59.19
2018-04-28T00:25:07.970Z,58.99
2018-04-28T00:26:08.192Z,59.09
2018-04-28T00:27:08.174Z,58.99
2018-04-28T00:28:08.154Z,59.09
2018-04-28T00:29:08.131Z,59.19
2018-04-28T00:30:08.106Z,59.19
2018-04-28T00:31:08.079Z,59.02
2018-04-28T00:32:08.064Z,59.02
2018-04-28T00:33:07.788Z,59.02
2018-04-28T00:34:08.014Z,58.93
2018-04-28T00:35:07.990Z,59.02
2018-04-28T00:36:07.971Z,58.64
2018-04-28T00:37:07.696Z,59.12
2018-04-28T00:38:07.923Z,59.02
2018-04-28T00:39:07.899Z,59.02
2018-04-28T00:40:07.878Z,59.02
2018-04-28T00:41:07.853Z,59.56
2018-04-28T00:42:07.584Z,59.31
2018-04-28T00:43:07.920Z,59.22
2018-04-28T00:44:07.539Z,59.28
2018-04-28T00:45:07.515Z,59.41
2018-04-28T00:46:07.494Z,58.99
2018-04-28T00:47:07.729Z,59.31
2018-04-28T00:48:07.696Z,59.22
2018-04-28T00:49:07.430Z,59.5
2018-04-28T00:50:07.407Z,59.47
2018-04-28T00:51:07.381Z,60.07
2018-04-28T00:52:07.604Z,59.78
2018-04-28T00:53:07.335Z,59.98
2018-04-28T00:54:07.568Z,59.56
2018-04-28T00:55:07.295Z,59.98
2018-04-28T00:56:07.522Z,59.88
2018-04-28T00:57:07.500Z,59.98
2018-04-28T00:58:07.469Z,60.17
2018-04-28T00:59:07.443Z,60.17
2018-04-28T01:00:07.425Z,59.5
2018-04-28T01:01:07.400Z,59.5
2018-04-28T01:02:07.387Z,59.5
2018-04-28T01:03:07.367Z,59.5
2018-04-28T01:04:07.339Z,60.17
2018-04-28T01:05:07.310Z,59.88
2018-04-28T01:06:07.037Z,59.88
2018-04-28T01:07:07.019Z,59.88
2018-04-28T01:08:06.994Z,59.98
2018-04-28T01:09:07.228Z,59.69
2018-04-28T01:10:06.952Z,59.31
2018-04-28T01:11:06.931Z,59.31
2018-04-28T01:12:06.904Z,59.31
2018-04-28T01:13:07.126Z,59.31
2018-04-28T01:14:07.107Z,59.31
2018-04-28T01:15:07.081Z,59.31
2018-04-28T01:16:06.812Z,59.5
2018-04-28T01:17:07.040Z,59.59
2018-04-28T01:18:07.017Z,59.69
2018-04-28T01:19:06.991Z,59.88
2018-04-28T01:20:06.970Z,59.78
2018-04-28T01:21:06.952Z,59.88
2018-04-28T01:22:06.924Z,59.78
2018-04-28T01:23:06.911Z,59.69
2018-04-28T01:24:06.880Z,59.88
2018-04-28T01:25:06.609Z,60.17
2018-04-28T01:26:06.835Z,60.27
2018-04-28T01:27:06.814Z,60.17
2018-04-28T01:28:06.789Z,60.17
2018-04-28T01:29:06.765Z,60.55
2018-04-28T01:30:06.914Z,60.46
2018-04-28T01:31:06.721Z,60.55
2018-04-28T01:32:06.705Z,60.64
2018-04-28T01:33:06.671Z,60.55
2018-04-28T01:34:06.661Z,61.22
2018-04-28T01:35:06.627Z,60.74
2018-04-28T01:36:06.607Z,60.84
2018-04-28T01:37:06.581Z,60.55
2018-04-28T01:38:06.558Z,61.22
2018-04-28T01:39:06.545Z,61.47
2018-04-28T01:40:06.514Z,61
2018-04-28T01:41:06.499Z,61.66
2018-04-28T01:42:06.472Z,61.47
2018-04-28T01:43:06.448Z,62.05
2018-04-28T01:44:06.425Z,61.95
2018-04-28T01:45:06.408Z,61.76
2018-04-28T01:46:06.387Z,62.34
2018-04-28T01:47:06.358Z,61.86
2018-04-28T01:48:06.443Z,61.95
2018-04-28T01:49:06.311Z,61.86
2018-04-28T01:50:06.039Z,62.15
2018-04-28T01:51:06.015Z,62.24
2018-04-28T01:52:06.241Z,62.71
2018-04-28T01:53:06.216Z,62.81
2018-04-28T01:54:06.195Z,62.62
2018-04-28T01:55:06.178Z,62.52
2018-04-28T01:56:06.152Z,62.62
2018-04-28T01:57:05.879Z,62.91
2018-04-28T01:58:06.102Z,63
2018-04-28T01:59:06.086Z,62.62
2018-04-28T02:00:06.107Z,63.29
2018-04-28T02:01:05.786Z,63.2
2018-04-28T02:02:06.016Z,63.48
2018-04-28T02:03:06.007Z,63.35
2018-04-28T02:04:05.967Z,63.83
2018-04-28T02:05:05.945Z,63.54
2018-04-28T02:06:05.673Z,63.45
2018-04-28T02:07:05.896Z,63.76
2018-04-28T02:08:05.627Z,63.54
2018-04-28T02:09:05.604Z,63.54
2018-04-28T02:10:05.824Z,64.02
2018-04-28T02:11:05.557Z,64.59
2018-04-28T02:12:05.533Z,64.5
2018-04-28T02:13:05.760Z,64.31
2018-04-28T02:14:05.733Z,64.4
2018-04-28T02:15:05.716Z,64.78
2018-04-28T02:16:05.439Z,64.88
2018-04-28T02:17:05.666Z,65.07
2018-04-28T02:18:05.395Z,65.26
2018-04-28T02:19:05.621Z,65.64
2018-04-28T02:20:05.601Z,65.45
2018-04-28T02:21:05.580Z,65.26
2018-04-28T02:22:05.552Z,65.64
2018-04-28T02:23:05.527Z,65.55
2018-04-28T02:24:05.507Z,66.02
2018-04-28T02:25:05.486Z,66.02
2018-04-28T02:26:05.460Z,65.83
2018-04-28T02:27:05.440Z,65.83
2018-04-28T02:28:05.411Z,66.41
2018-04-28T02:29:05.142Z,66.02
2018-04-28T02:30:05.372Z,65.93
2018-04-28T02:31:05.346Z,66.88
2018-04-28T02:32:05.313Z,66.5
2018-04-28T02:33:05.053Z,66.6
2018-04-28T02:34:05.271Z,66.69
2018-04-28T02:35:05.001Z,66.6
2018-04-28T02:36:05.220Z,66.22
2018-04-28T02:37:05.202Z,66.41
2018-04-28T02:38:05.178Z,66.6
2018-04-28T02:39:05.157Z,66.88
2018-04-28T02:40:04.888Z,66.41
2018-04-28T02:41:04.859Z,66.41
2018-04-28T02:42:05.083Z,66.78
2018-04-28T02:43:04.811Z,66.6
2018-04-28T02:44:05.041Z,66.88
2018-04-28T02:45:05.017Z,66.69
2018-04-28T02:46:04.991Z,66.41
2018-04-28T02:47:04.717Z,66.78
2018-04-28T02:48:04.944Z,66.98
2018-04-28T02:49:04.670Z,66.6
2018-04-28T02:50:05.008Z,66.88
2018-04-28T02:51:04.871Z,67.36
2018-04-28T02:52:04.600Z,67.36
2018-04-28T02:53:04.822Z,66.98
2018-04-28T02:54:04.803Z,66.98
2018-04-28T02:55:04.529Z,67.17
2018-04-28T02:56:04.840Z,66.98
2018-04-28T02:57:04.740Z,66.98
2018-04-28T02:58:04.712Z,67.07
2018-04-28T02:59:04.435Z,66.88
2018-04-28T03:00:04.410Z,66.88
2018-04-28T03:01:04.635Z,66.88
2018-04-28T03:02:04.616Z,66.98
2018-04-28T03:03:04.588Z,66.98
2018-04-28T03:04:04.570Z,67.17
2018-04-28T03:05:04.303Z,67.65
2018-04-28T03:06:04.521Z,67.27
2018-04-28T03:07:04.246Z,67.93
2018-04-28T03:08:04.481Z,67.55
2018-04-28T03:09:04.201Z,67.46
2018-04-28T03:10:04.471Z,67.65
2018-04-28T03:11:04.413Z,67.36
2018-04-28T03:12:04.380Z,67.65
2018-04-28T03:13:04.366Z,67.27
2018-04-28T03:14:04.084Z,67.65
2018-04-28T03:15:04.068Z,67.36
2018-04-28T03:16:04.037Z,67.55
2018-04-28T03:17:04.016Z,67.55
2018-04-28T03:18:04.234Z,67.46
2018-04-28T03:19:03.964Z,67.46
2018-04-28T03:20:04.189Z,67.46
2018-04-28T03:21:03.916Z,67.55
2018-04-28T03:22:04.168Z,67.74
2018-04-28T03:23:04.121Z,67.27
2018-04-28T03:24:04.104Z,67.65
2018-04-28T03:25:03.823Z,67.55
2018-04-28T03:26:03.801Z,67.27
2018-04-28T03:27:04.025Z,67.65
2018-04-28T03:28:04.007Z,67.74
2018-04-28T03:29:03.728Z,67.65
2018-04-28T03:30:03.958Z,67.65
2018-04-28T03:31:03.957Z,67.83
2018-04-28T03:32:03.913Z,67.74
2018-04-28T03:33:03.635Z,67.83
2018-04-28T03:34:03.867Z,67.83
2018-04-28T03:35:03.838Z,67.74
2018-04-28T03:36:03.821Z,67.74
2018-04-28T03:37:03.541Z,67.9
2018-04-28T03:38:03.521Z,67.55
2018-04-28T03:39:03.751Z,67.55
2018-04-28T03:40:03.725Z,67.46
2018-04-28T03:41:03.446Z,67.83
2018-04-28T03:42:03.671Z,67.9
2018-04-28T03:43:03.400Z,67.99
2018-04-28T03:44:03.374Z,67.42
2018-04-28T03:45:03.603Z,67.8
2018-04-28T03:46:03.329Z,67.8
2018-04-28T03:47:03.302Z,67.8
2018-04-28T03:48:03.529Z,67.71
2018-04-28T03:49:03.514Z,67.99
2018-04-28T03:50:03.490Z,67.8
2018-04-28T03:51:03.456Z,67.46
2018-04-28T03:52:03.439Z,67.36
2018-04-28T03:53:03.410Z,67.83
2018-04-28T03:54:03.391Z,67.55
2018-04-28T03:55:03.366Z,67.55
2018-04-28T03:56:03.340Z,67.74
2018-04-28T03:57:03.318Z,67.65
2018-04-28T03:58:03.294Z,67.46
2018-04-28T03:59:03.268Z,67.74
2018-04-28T04:00:03.254Z,67.71
2018-04-28T04:01:03.228Z,67.71
2018-04-28T04:02:03.199Z,67.42
2018-04-28T04:03:03.175Z,67.55
2018-04-28T04:04:03.154Z,67.74
2018-04-28T04:05:03.128Z,67.42
2018-04-28T04:06:03.100Z,67.9
2018-04-28T04:07:02.829Z,67.61
2018-04-28T04:08:02.810Z,67.61
2018-04-28T04:09:02.783Z,67.8
2018-04-28T04:10:03.007Z,67.52
2018-04-28T04:11:02.987Z,67.52
2018-04-28T04:12:02.716Z,67.8
2018-04-28T04:13:02.938Z,67.8
2018-04-28T04:14:02.912Z,67.8
2018-04-28T04:15:02.890Z,67.99
2018-04-28T04:16:02.866Z,67.9
2018-04-28T04:17:02.841Z,67.99
2018-04-28T04:18:02.573Z,68.18
2018-04-28T04:19:02.801Z,68.28
2018-04-28T04:20:02.773Z,68.09
2018-04-28T04:21:02.747Z,68.28
2018-04-28T04:22:02.727Z,68.18
2018-04-28T04:23:02.707Z,68.38
2018-04-28T04:24:02.680Z,68.38
2018-04-28T04:25:02.407Z,68.18
2018-04-28T04:26:02.629Z,68.18
2018-04-28T04:27:02.608Z,67.99
2018-04-28T04:28:02.582Z,68.18
2018-04-28T04:29:02.561Z,68.09
2018-04-28T04:30:02.537Z,67.99
2018-04-28T04:31:02.512Z,68.18
2018-04-28T04:32:02.589Z,68.18
2018-04-28T04:33:02.468Z,68.18
2018-04-28T04:34:02.441Z,67.9
2018-04-28T04:35:02.418Z,68.38
2018-04-28T04:36:02.396Z,68.28
2018-04-28T04:37:02.372Z,68.57
2018-04-28T04:38:02.352Z,68.85
2018-04-28T04:39:02.086Z,68.76
2018-04-28T04:40:02.307Z,68.66
2018-04-28T04:41:02.028Z,68.76
2018-04-28T04:42:02.007Z,68.66
2018-04-28T04:43:02.231Z,68.57
2018-04-28T04:44:02.205Z,68.76
2018-04-28T04:45:02.188Z,68.18
2018-04-28T04:46:02.159Z,68.47
2018-04-28T04:47:02.136Z,68.47
2018-04-28T04:48:01.867Z,68.47
2018-04-28T04:49:02.099Z,68.18
2018-04-28T04:50:02.079Z,68.95
2018-04-28T04:51:02.045Z,68.57
2018-04-28T04:52:01.773Z,68.76
2018-04-28T04:53:01.997Z,68.76
2018-04-28T04:54:01.979Z,68.76
2018-04-28T04:55:01.949Z,68.66
2018-04-28T04:56:01.937Z,68.18
2018-04-28T04:57:01.903Z,68.76
2018-04-28T04:58:01.634Z,68.28
2018-04-28T04:59:01.610Z,68.41
2018-04-28T05:00:01.833Z,68.51
2018-04-28T05:01:01.817Z,68.32
2018-04-28T05:02:01.790Z,68.32
2018-04-28T05:03:01.768Z,68.03
2018-04-28T05:04:01.497Z,68.32
2018-04-28T05:05:01.728Z,68.12
2018-04-28T05:06:01.706Z,68.22
2018-04-28T05:07:01.674Z,68.12
2018-04-28T05:08:01.652Z,68.12
2018-04-28T05:09:01.636Z,68.22
2018-04-28T05:10:01.359Z,68.32
2018-04-28T05:11:01.333Z,68.12
2018-04-28T05:12:01.558Z,68.32
2018-04-28T05:13:01.540Z,68.32
2018-04-28T05:14:01.546Z,68.22
2018-04-28T05:15:01.495Z,68.12
2018-04-28T05:16:01.471Z,68.32
2018-04-28T05:17:01.446Z,68.32
2018-04-28T05:18:01.423Z,68.22
2018-04-28T05:19:01.405Z,68.03
2018-04-28T05:20:01.130Z,68.03
2018-04-28T05:21:01.368Z,68.03
2018-04-28T05:22:01.334Z,68.12
2018-04-28T05:23:01.312Z,67.83
2018-04-28T05:24:01.289Z,67.83
2018-04-28T05:25:01.268Z,67.93
2018-04-28T05:26:00.997Z,67.74
2018-04-28T05:27:01.224Z,68.03
2018-04-28T05:28:01.197Z,67.74
2018-04-28T05:29:01.175Z,67.55
2018-04-28T05:30:01.154Z,67.36
2018-04-28T05:31:01.134Z,67.93
2018-04-28T05:32:01.210Z,67.93
2018-04-28T05:33:01.088Z,67.36
2018-04-28T05:34:01.071Z,67.55
2018-04-28T05:35:01.041Z,66.92
2018-04-28T05:36:01.154Z,67.11
2018-04-28T05:37:00.996Z,67.11
2018-04-28T05:38:00.974Z,66.88
2018-04-28T05:39:00.956Z,66.53
2018-04-28T05:40:00.933Z,67.01
2018-04-28T05:41:00.665Z,66.25
2018-04-28T05:42:00.889Z,65.96
2018-04-28T05:43:00.617Z,65.87
2018-04-28T05:44:00.844Z,66.15
2018-04-28T05:45:00.836Z,66.06
2018-04-28T05:46:00.551Z,65.67
2018-04-28T05:47:00.777Z,65.48
2018-04-28T05:48:00.754Z,65.48
2018-04-28T05:49:00.734Z,65.3
2018-04-28T05:50:00.713Z,65.48
2018-04-28T05:51:00.688Z,65.04
2018-04-28T05:52:00.667Z,65.04
2018-04-28T05:53:00.646Z,64.75
2018-04-28T05:54:00.633Z,64.75
2018-04-28T05:55:00.354Z,64.37
2018-04-28T05:56:00.583Z,64.28
2018-04-28T05:57:00.565Z,64.37
2018-04-28T05:58:00.539Z,64.28
2018-04-28T05:59:00.516Z,64.28
2018-04-28T06:00:00.497Z,63.32
2018-04-28T06:01:00.481Z,63.6
2018-04-28T06:02:00.453Z,63.93
2018-04-28T06:03:00.432Z,63.16
2018-04-28T06:04:00.412Z,63.64
2018-04-28T06:05:00.391Z,63.16
2018-04-28T06:06:00.372Z,62.78
2018-04-28T06:07:00.350Z,62.87
2018-04-28T06:08:00.343Z,61.95
2018-04-28T06:09:00.325Z,61.85
2018-04-28T06:10:00.296Z,61.28
2018-04-28T06:11:00.288Z,60.99
2018-04-28T06:12:00.005Z,60.33
2018-04-28T06:13:00.230Z,60.23
2018-04-28T06:14:00.213Z,60.23
2018-04-28T06:15:00.197Z,59.97
2018-04-28T06:16:00.177Z,59.01
2018-04-28T06:17:00.160Z,59.3
2018-04-28T06:18:00.139Z,59.2
2018-04-28T06:19:00.120Z,59.01
2018-04-28T06:19:59.914Z,59.01
2018-04-28T06:21:00.084Z,58.44
2018-04-28T06:22:00.066Z,58.54
2018-04-28T06:23:00.052Z,58.44
2018-04-28T06:24:00.031Z,58.44
2018-04-28T06:25:00.013Z,58.34
2018-04-28T06:26:00.087Z,58.34
2018-04-28T06:26:59.976Z,57.97
2018-04-28T06:27:59.959Z,57.87
2018-04-28T06:28:59.692Z,57.77
2018-04-28T06:29:59.918Z,57.97
2018-04-28T06:30:59.910Z,57.77
2018-04-28T06:31:59.883Z,57.58
2018-04-28T06:32:59.869Z,57.29
2018-04-28T06:33:59.850Z,57.29
2018-04-28T06:34:59.829Z,57.87
2018-04-28T06:35:59.812Z,57.58
2018-04-28T06:36:59.805Z,57.68
2018-04-28T06:38:00.030Z,57.58
2018-04-28T06:38:59.520Z,57.39
2018-04-28T06:39:59.746Z,57.39
2018-04-28T06:40:59.475Z,57.01
2018-04-28T06:41:59.460Z,57.2
2018-04-28T06:42:59.440Z,57.01
2018-04-28T06:43:59.423Z,57.29
2018-04-28T06:44:59.657Z,57.2
2018-04-28T06:45:59.637Z,57.2
2018-04-28T06:46:59.372Z,57.39
2018-04-28T06:47:59.603Z,57.1
2018-04-28T06:48:59.591Z,57.2
2018-04-28T06:49:59.570Z,57.2
2018-04-28T06:50:59.603Z,56.94
2018-04-28T06:51:59.531Z,56.46
2018-04-28T06:52:59.521Z,56.34
2018-04-28T06:53:59.498Z,56.08
2018-04-28T06:54:59.483Z,56.56
2018-04-28T06:55:59.464Z,56.37
2018-04-28T06:56:59.449Z,56.56
2018-04-28T06:57:59.429Z,56.75
2018-04-28T06:58:59.167Z,57.13
2018-04-28T06:59:59.146Z,57.23
2018-04-28T07:00:59.377Z,57.1
2018-04-28T07:01:59.113Z,57.01
2018-04-28T07:02:59.343Z,57.48
2018-04-28T07:03:59.326Z,57.29
2018-04-28T07:04:59.308Z,57.04
2018-04-28T07:05:59.294Z,57.1
2018-04-28T07:06:59.272Z,57.13
2018-04-28T07:07:59.255Z,57.13
2018-04-28T07:08:59.239Z,57.23
2018-04-28T07:09:59.218Z,56.37
2018-04-28T07:10:58.956Z,56.46
2018-04-28T07:11:59.193Z,56.08
2018-04-28T07:12:59.166Z,56.49
2018-04-28T07:13:59.152Z,56.2
2018-04-28T07:14:59.144Z,56.01
2018-04-28T07:15:59.118Z,55.91
2018-04-28T07:16:59.102Z,55.53
2018-04-28T07:17:59.114Z,54.96
2018-04-28T07:18:59.068Z,54.89
2018-04-28T07:19:59.054Z,55.27
2018-04-28T07:20:59.093Z,54.6
2018-04-28T07:21:59.026Z,54.6
2018-04-28T07:22:59.018Z,54.77
2018-04-28T07:23:58.992Z,54.5
2018-04-28T07:24:58.977Z,54.7
2018-04-28T07:25:58.959Z,54.32
2018-04-28T07:26:58.695Z,54.67
2018-04-28T07:27:58.930Z,53.91
2018-04-28T07:28:58.921Z,53.81
2018-04-28T07:29:58.897Z,53.91
2018-04-28T07:30:58.882Z,54.38
2018-04-28T07:31:58.944Z,54.86
2018-04-28T07:32:58.604Z,54.55
2018-04-28T07:33:58.839Z,54.64
2018-04-28T07:34:58.818Z,54.28
2018-04-28T07:35:58.554Z,54.77
2018-04-28T07:36:58.788Z,54.77
2018-04-28T07:37:58.767Z,54.48
2018-04-28T07:38:58.760Z,54.28
2018-04-28T07:39:58.489Z,54.19
2018-04-28T07:40:58.726Z,54.57
2018-04-28T07:41:58.705Z,54.48
2018-04-28T07:42:58.688Z,54.19
2018-04-28T07:43:58.669Z,54.19
2018-04-28T07:44:58.726Z,54.38
2018-04-28T07:45:58.637Z,54.67
2018-04-28T07:46:58.622Z,54.86
2018-04-28T07:47:58.600Z,54.67
2018-04-28T07:48:58.585Z,54.19
2018-04-28T07:49:58.571Z,54.28
2018-04-28T07:50:58.551Z,54.67
2018-04-28T07:51:58.545Z,53.81
2018-04-28T07:52:58.529Z,54
2018-04-28T07:53:58.553Z,53.91
2018-04-28T07:54:58.497Z,54
2018-04-28T07:55:58.474Z,53.91
2018-04-28T07:56:58.451Z,54.12
2018-04-28T07:57:58.437Z,53.74
2018-04-28T07:58:58.419Z,54.03
2018-04-28T07:59:58.406Z,53.07
2018-04-28T08:00:58.392Z,53.16
2018-04-28T08:01:58.371Z,52.78
2018-04-28T08:02:58.355Z,53.26
2018-04-28T08:03:58.338Z,53.26
2018-04-28T08:04:58.324Z,52.59
2018-04-28T08:05:58.309Z,52.78
2018-04-28T08:06:58.410Z,53.07
2018-04-28T08:07:58.275Z,52.87
2018-04-28T08:08:58.269Z,52.87
2018-04-28T08:09:57.992Z,52.69
2018-04-28T08:10:57.976Z,52.78
2018-04-28T08:11:58.209Z,52.59
2018-04-28T08:12:58.336Z,52.69
2018-04-28T08:13:59.675Z,52.69
2018-04-28T08:14:58.157Z,52.97
2018-04-28T08:15:58.147Z,52.97
2018-04-28T08:16:57.881Z,52.5
2018-04-28T08:17:58.112Z,52.59
2018-04-28T08:18:58.095Z,52.01
2018-04-28T08:19:57.833Z,52.4
2018-04-28T08:20:58.065Z,51.92
2018-04-28T08:21:58.046Z,52.4
2018-04-28T08:22:58.031Z,52.59
2018-04-28T08:23:58.019Z,52.4
2018-04-28T08:24:57.752Z,52.3
2018-04-28T08:25:57.982Z,52.01
2018-04-28T08:26:57.972Z,52.14
2018-04-28T08:27:57.952Z,52.33
2018-04-28T08:28:57.940Z,52.04
2018-04-28T08:29:57.938Z,51.65
2018-04-28T08:30:57.906Z,51.46
2018-04-28T08:31:57.892Z,51.37
2018-04-28T08:32:57.881Z,50.92
2018-04-28T08:33:57.612Z,50.63
2018-04-28T08:34:57.845Z,50.73
2018-04-28T08:35:57.829Z,50.63
2018-04-28T08:36:57.915Z,50.08
2018-04-28T08:37:57.800Z,50.46
2018-04-28T08:38:57.787Z,50.17
2018-04-28T08:39:57.774Z,50.56
2018-04-28T08:40:57.755Z,50.08
2018-04-28T08:41:57.496Z,49.98
2018-04-28T08:42:57.479Z,49.79
2018-04-28T08:43:57.715Z,49.24
2018-04-28T08:44:57.702Z,49.05
2018-04-28T08:45:57.687Z,48.57
2018-04-28T08:46:57.670Z,48.76
2018-04-28T08:47:57.655Z,48.95
2018-04-28T08:48:57.399Z,48.76
2018-04-28T08:49:57.627Z,48.76
2018-04-28T08:50:57.634Z,48.54
2018-04-28T08:51:57.601Z,49.02
2018-04-28T08:52:57.589Z,48.74
2018-04-28T08:53:57.570Z,49.12
2018-04-28T08:54:57.561Z,49.12
2018-04-28T08:55:57.545Z,48.93
2018-04-28T08:56:57.540Z,49.02
2018-04-28T08:57:57.520Z,49.21
2018-04-28T08:58:57.509Z,49.21
2018-04-28T08:59:57.492Z,49.98
2018-04-28T09:00:57.476Z,49.69
2018-04-28T09:01:57.459Z,49.79
2018-04-28T09:02:57.443Z,49.69
2018-04-28T09:03:57.433Z,50.05
2018-04-28T09:04:57.420Z,50.43
2018-04-28T09:05:57.405Z,50.05
2018-04-28T09:06:57.391Z,49.12
2018-04-28T09:07:57.373Z,48.47
2018-04-28T09:08:57.361Z,47.32
2018-04-28T09:09:57.095Z,46.09
2018-04-28T09:10:57.080Z,46.21
2018-04-28T09:11:57.316Z,46.12
2018-04-28T09:12:57.328Z,45.54
2018-04-28T09:13:57.041Z,45.37
2018-04-28T09:14:57.277Z,45.28
2018-04-28T09:15:57.015Z,45.66
2018-04-28T09:16:57.250Z,45.64
2018-04-28T09:17:57.240Z,45.66
2018-04-28T09:18:57.232Z,45.56
2018-04-28T09:19:57.217Z,45.56
2018-04-28T09:20:57.206Z,46.21
2018-04-28T09:21:57.191Z,46.41
2018-04-28T09:22:57.180Z,46.38
2018-04-28T09:23:57.168Z,46.94
2018-04-28T09:24:57.156Z,47.61
2018-04-28T09:25:57.150Z,48.44
2018-04-28T09:26:57.133Z,48.54
2018-04-28T09:27:56.874Z,48.54
2018-04-28T09:28:56.862Z,48.64
2018-04-28T09:29:57.099Z,48.64
2018-04-28T09:30:57.085Z,48.83
2018-04-28T09:31:57.082Z,49.02
2018-04-28T09:32:57.136Z,49.02
2018-04-28T09:33:57.052Z,49.02
2018-04-28T09:34:56.793Z,49.02
2018-04-28T09:35:57.035Z,48.93
2018-04-28T09:36:57.018Z,48.93
2018-04-28T09:37:56.758Z,48.44
2018-04-28T09:38:56.991Z,48.64
2018-04-28T09:39:56.794Z,47.99
2018-04-28T09:40:56.972Z,48.18
2018-04-28T09:41:56.709Z,47.8
2018-04-28T09:42:56.945Z,48.09
2018-04-28T09:43:56.930Z,47.89
2018-04-28T09:44:56.927Z,47.99
2018-04-28T09:45:56.908Z,47.51
2018-04-28T09:46:56.896Z,47.41
2018-04-28T09:47:56.881Z,47.25
2018-04-28T09:48:56.875Z,46.38
2018-04-28T09:49:56.857Z,46.19
2018-04-28T09:50:56.845Z,46.19
2018-04-28T09:51:56.832Z,46.48
2018-04-28T09:52:56.819Z,46.19
2018-04-28T09:53:56.810Z,46.48
2018-04-28T09:54:56.550Z,46.28
2018-04-28T09:55:56.784Z,45.81
2018-04-28T09:56:56.526Z,46.09
2018-04-28T09:57:56.767Z,46.19
2018-04-28T09:58:56.851Z,45.42
2018-04-28T09:59:56.737Z,45.15
2018-04-28T10:00:56.737Z,45.06
2018-04-28T10:01:56.710Z,45.15
2018-04-28T10:02:56.795Z,45.42
2018-04-28T10:03:56.725Z,45.23
2018-04-28T10:04:56.482Z,45.52
2018-04-28T10:05:56.809Z,45.61
2018-04-28T10:06:56.861Z,45.52
2018-04-28T10:07:56.641Z,46
2018-04-28T10:08:56.409Z,46.19
2018-04-28T10:09:56.611Z,46.36
2018-04-28T10:10:56.351Z,46.17
2018-04-28T10:11:56.589Z,46.36
2018-04-28T10:12:56.582Z,46.45
2018-04-28T10:13:56.562Z,46.65
2018-04-28T10:14:56.300Z,46.26
2018-04-28T10:15:56.538Z,46.26
2018-04-28T10:16:56.464Z,45.88
2018-04-28T10:17:56.509Z,46.17
2018-04-28T10:18:56.500Z,46.17
2018-04-28T10:19:56.488Z,45.52
2018-04-28T10:20:56.487Z,45.61
2018-04-28T10:21:56.453Z,44.94
2018-04-28T10:22:56.444Z,44.94
2018-04-28T10:23:56.428Z,44.94
2018-04-28T10:24:56.414Z,44.82
2018-04-28T10:25:56.401Z,44.82
2018-04-28T10:26:56.390Z,45.01
2018-04-28T10:27:56.375Z,45.11
2018-04-28T10:28:56.360Z,45.3
2018-04-28T10:29:56.099Z,45.11
2018-04-28T10:30:56.573Z,44.82
2018-04-28T10:31:56.321Z,45.11
2018-04-28T10:32:56.300Z,45.21
2018-04-28T10:33:56.039Z,45.21
2018-04-28T10:34:56.275Z,45.59
2018-04-28T10:35:56.010Z,44.92
2018-04-28T10:36:56.246Z,45.04
2018-04-28T10:37:56.232Z,45.11
2018-04-28T10:38:56.216Z,45.14
2018-04-28T10:39:56.198Z,44.75
2018-04-28T10:40:55.940Z,44.65
2018-04-28T10:41:56.182Z,44.94
2018-04-28T10:42:56.161Z,44.84
2018-04-28T10:43:56.146Z,44.94
2018-04-28T10:44:56.128Z,45.14
2018-04-28T10:45:56.118Z,44.65
2018-04-28T10:46:56.101Z,44.27
2018-04-28T10:47:56.095Z,44.08
2018-04-28T10:48:56.074Z,44.27
2018-04-28T10:49:56.061Z,44.06
2018-04-28T10:50:56.045Z,44.37
2018-04-28T10:51:56.030Z,44.34
2018-04-28T10:52:56.020Z,44.15
2018-04-28T10:53:56.113Z,44.44
2018-04-28T10:54:55.740Z,44.63
2018-04-28T10:55:55.974Z,44.54
2018-04-28T10:56:56.000Z,44.63
2018-04-28T10:57:55.945Z,44.54
2018-04-28T10:58:55.928Z,44.82
2018-04-28T10:59:55.664Z,44.73
2018-04-28T11:00:55.907Z,44.92
2018-04-28T11:01:55.884Z,45.01
2018-04-28T11:02:55.621Z,44.92
2018-04-28T11:03:55.857Z,45.01
2018-04-28T11:04:55.844Z,44.92
2018-04-28T11:05:55.833Z,44.92
2018-04-28T11:06:55.821Z,44.92
2018-04-28T11:07:55.796Z,44.73
2018-04-28T11:08:55.789Z,44.73
2018-04-28T11:09:55.767Z,44.92
2018-04-28T11:10:55.760Z,44.84
2018-04-28T11:11:55.744Z,44.73
2018-04-28T11:12:55.736Z,44.94
2018-04-28T11:13:55.792Z,44.82
2018-04-28T11:14:55.696Z,44.84
2018-04-28T11:15:55.683Z,44.94
2018-04-28T11:16:55.676Z,44.73
2018-04-28T11:17:55.651Z,45.11
2018-04-28T11:18:55.641Z,44.92
2018-04-28T11:19:55.679Z,45.3
2018-04-28T11:20:55.609Z,45.28
2018-04-28T11:21:55.594Z,45.28
2018-04-28T11:22:55.586Z,45.37
2018-04-28T11:23:55.569Z,44.92
2018-04-28T11:24:55.550Z,44.73
2018-04-28T11:25:55.372Z,44.63
2018-04-28T11:26:55.521Z,44.37
2018-04-28T11:27:55.255Z,43.98
2018-04-28T11:28:55.492Z,43.5
2018-04-28T11:29:55.476Z,43.79
2018-04-28T11:30:55.460Z,43.4
2018-04-28T11:31:55.198Z,43.7
2018-04-28T11:32:55.547Z,43.5
2018-04-28T11:33:55.419Z,43.23
2018-04-28T11:34:55.408Z,43.33
2018-04-28T11:35:55.394Z,43.43
2018-04-28T11:36:55.375Z,43.33
2018-04-28T11:37:55.392Z,43.14
2018-04-28T11:38:55.348Z,43.33
2018-04-28T11:39:55.331Z,43.04
2018-04-28T11:40:55.321Z,43.52
2018-04-28T11:41:55.305Z,43.4
2018-04-28T11:42:55.299Z,43.7
2018-04-28T11:43:55.277Z,43.79
2018-04-28T11:44:55.268Z,43.5
2018-04-28T11:45:55.005Z,43.23
2018-04-28T11:46:55.233Z,43.23
2018-04-28T11:47:55.223Z,42
2018-04-28T11:48:55.208Z,41.91
2018-04-28T11:49:55.196Z,41.72
2018-04-28T11:50:55.179Z,41.24
2018-04-28T11:51:55.171Z,40.78
2018-04-28T11:52:55.160Z,40.39
2018-04-28T11:53:55.142Z,40.49
2018-04-28T11:54:55.129Z,40.58
2018-04-28T11:55:55.115Z,40.58
2018-04-28T11:56:55.802Z,40.47
2018-04-28T11:57:55.096Z,40.95
2018-04-28T11:58:55.138Z,41.05
2018-04-28T11:59:55.067Z,41.43
2018-04-28T12:00:55.065Z,40.76
2018-04-28T12:01:55.041Z,40.76
2018-04-28T12:02:54.784Z,40.58
2018-04-28T12:03:55.020Z,40.39
2018-04-28T12:04:55.002Z,39.93
2018-04-28T12:05:55.113Z,39.54
2018-04-28T12:06:54.981Z,39.64
2018-04-28T12:07:54.958Z,39.26
2018-04-28T12:08:55.012Z,39.36
2018-04-28T12:09:54.936Z,39.33
2018-04-28T12:10:54.674Z,39.43
2018-04-28T12:11:54.908Z,39.33
2018-04-28T12:12:54.894Z,39.43
2018-04-28T12:13:54.636Z,39.53
2018-04-28T12:14:54.871Z,39.43
2018-04-28T12:15:54.610Z,39.33
2018-04-28T12:16:54.855Z,39.36
2018-04-28T12:17:54.824Z,38.87
2018-04-28T12:18:54.815Z,38.87
2018-04-28T12:19:54.800Z,38.68
2018-04-28T12:20:54.808Z,39.24
2018-04-28T12:21:54.774Z,39.14
2018-04-28T12:22:54.514Z,39.33
2018-04-28T12:23:54.503Z,39.62
2018-04-28T12:24:54.740Z,39.43
2018-04-28T12:25:54.733Z,39.43
2018-04-28T12:26:54.461Z,39.24
2018-04-28T12:27:54.695Z,39.43
2018-04-28T12:28:54.435Z,39.53
2018-04-28T12:29:54.967Z,39.16
2018-04-28T12:30:54.660Z,38.68
2018-04-28T12:31:54.644Z,38.68
2018-04-28T12:32:54.381Z,38.78
2018-04-28T12:33:54.619Z,39.36
2018-04-28T12:34:54.602Z,39.54
2018-04-28T12:35:54.643Z,39.24
2018-04-28T12:36:54.582Z,39.81
2018-04-28T12:37:54.314Z,40.01
2018-04-28T12:38:54.551Z,40.28
2018-04-28T12:39:54.540Z,40.66
2018-04-28T12:40:54.525Z,40.47
2018-04-28T12:41:54.511Z,41.24
2018-04-28T12:42:54.500Z,41.6
2018-04-28T12:43:54.235Z,41.79
2018-04-28T12:44:54.471Z,41.7
2018-04-28T12:45:54.459Z,41.7
2018-04-28T12:46:54.444Z,41.89
2018-04-28T12:47:54.433Z,41.99
2018-04-28T12:48:54.416Z,41.91
2018-04-28T12:49:54.400Z,41.99
2018-04-28T12:50:54.515Z,41.62
2018-04-28T12:51:54.370Z,41.79
2018-04-28T12:52:54.356Z,42.08
2018-04-28T12:53:54.345Z,42.18
2018-04-28T12:54:54.330Z,42.27